sensor_id;sensor_type;location;lat;lon;timestamp;P1;durP1;ratioP1;P2;durP2;ratioP2
3155;SDS011;1588;50.892;7.082;2024-02-15T00:01:47;25.57;;;3.60;;
3155;SDS011;1588;50.892;7.082;2024-02-15T00:06:50;3.03;;;2.43;;
3155;SDS011;1588;50.892;7.082;2024-02-15T00:11:54;4.53;;;2.97;;
3155;SDS011;1588;50.892;7.082;2024-02-15T00:16:59;4.30;;;3.00;;
3155;SDS011;1588;50.892;7.082;2024-02-15T00:22:02;7.40;;;3.37;;
3155;SDS011;1588;50.892;7.082;2024-02-15T00:27:06;5.33;;;3.00;;
3155;SDS011;1588;50.892;7.082;2024-02-15T00:32:09;6.30;;;3.33;;
3155;SDS011;1588;50.892;7.082;2024-02-15T00:37:12;4.70;;;2.90;;
3155;SDS011;1588;50.892;7.082;2024-02-15T00:42:15;4.40;;;3.03;;
3155;SDS011;1588;50.892;7.082;2024-02-15T00:47:18;10.63;;;3.50;;
3155;SDS011;1588;50.892;7.082;2024-02-15T00:52:21;6.67;;;3.53;;
3155;SDS011;1588;50.892;7.082;2024-02-15T00:57:43;4.67;;;3.37;;
3155;SDS011;1588;50.892;7.082;2024-02-15T01:02:46;7.10;;;4.57;;
3155;SDS011;1588;50.892;7.082;2024-02-15T01:07:50;8.63;;;4.07;;
3155;SDS011;1588;50.892;7.082;2024-02-15T01:12:54;8.33;;;4.00;;
3155;SDS011;1588;50.892;7.082;2024-02-15T01:17:56;5.57;;;3.20;;
3155;SDS011;1588;50.892;7.082;2024-02-15T01:22:59;8.63;;;4.60;;
3155;SDS011;1588;50.892;7.082;2024-02-15T01:28:07;7.43;;;3.47;;
3155;SDS011;1588;50.892;7.082;2024-02-15T01:33:09;6.07;;;3.63;;
3155;SDS011;1588;50.892;7.082;2024-02-15T01:38:12;5.13;;;3.23;;
3155;SDS011;1588;50.892;7.082;2024-02-15T01:43:16;8.40;;;3.30;;
3155;SDS011;1588;50.892;7.082;2024-02-15T01:48:18;12.23;;;4.40;;
3155;SDS011;1588;50.892;7.082;2024-02-15T01:53:21;8.40;;;3.73;;
3155;SDS011;1588;50.892;7.082;2024-02-15T01:58:25;8.10;;;4.00;;
3155;SDS011;1588;50.892;7.082;2024-02-15T02:03:29;15.07;;;4.10;;
3155;SDS011;1588;50.892;7.082;2024-02-15T02:08:31;10.93;;;3.30;;
3155;SDS011;1588;50.892;7.082;2024-02-15T02:13:36;6.70;;;3.70;;
3155;SDS011;1588;50.892;7.082;2024-02-15T02:18:39;9.37;;;3.10;;
3155;SDS011;1588;50.892;7.082;2024-02-15T02:23:42;9.37;;;3.53;;
3155;SDS011;1588;50.892;7.082;2024-02-15T02:28:51;15.37;;;2.83;;
3155;SDS011;1588;50.892;7.082;2024-02-15T02:33:54;5.73;;;2.80;;
3155;SDS011;1588;50.892;7.082;2024-02-15T02:38:59;4.13;;;3.20;;
3155;SDS011;1588;50.892;7.082;2024-02-15T02:44:17;5.43;;;2.90;;
3155;SDS011;1588;50.892;7.082;2024-02-15T02:49:36;5.90;;;3.43;;
3155;SDS011;1588;50.892;7.082;2024-02-15T02:54:38;10.03;;;3.20;;
3155;SDS011;1588;50.892;7.082;2024-02-15T02:59:43;18.93;;;4.07;;
3155;SDS011;1588;50.892;7.082;2024-02-15T03:04:45;6.30;;;4.07;;
3155;SDS011;1588;50.892;7.082;2024-02-15T03:09:48;7.67;;;3.40;;
3155;SDS011;1588;50.892;7.082;2024-02-15T03:14:53;4.50;;;3.17;;
3155;SDS011;1588;50.892;7.082;2024-02-15T03:19:55;8.70;;;3.33;;
3155;SDS011;1588;50.892;7.082;2024-02-15T03:24:58;8.37;;;3.67;;
3155;SDS011;1588;50.892;7.082;2024-02-15T03:30:02;6.33;;;3.17;;
3155;SDS011;1588;50.892;7.082;2024-02-15T03:35:05;6.47;;;2.93;;
3155;SDS011;1588;50.892;7.082;2024-02-15T03:40:08;4.93;;;2.97;;
3155;SDS011;1588;50.892;7.082;2024-02-15T03:45:12;7.20;;;3.40;;
3155;SDS011;1588;50.892;7.082;2024-02-15T03:50:15;10.63;;;3.90;;
3155;SDS011;1588;50.892;7.082;2024-02-15T03:55:19;8.60;;;3.40;;
3155;SDS011;1588;50.892;7.082;2024-02-15T04:00:27;7.63;;;3.43;;
3155;SDS011;1588;50.892;7.082;2024-02-15T04:05:30;5.70;;;3.27;;
3155;SDS011;1588;50.892;7.082;2024-02-15T04:10:33;9.23;;;3.73;;
3155;SDS011;1588;50.892;7.082;2024-02-15T04:15:37;6.10;;;2.90;;
3155;SDS011;1588;50.892;7.082;2024-02-15T04:20:39;6.60;;;3.00;;
3155;SDS011;1588;50.892;7.082;2024-02-15T04:25:45;9.50;;;3.30;;
3155;SDS011;1588;50.892;7.082;2024-02-15T04:30:53;14.00;;;3.93;;
3155;SDS011;1588;50.892;7.082;2024-02-15T04:36:03;17.43;;;3.00;;
3155;SDS011;1588;50.892;7.082;2024-02-15T04:41:07;6.30;;;3.10;;
3155;SDS011;1588;50.892;7.082;2024-02-15T04:46:11;7.13;;;2.93;;
3155;SDS011;1588;50.892;7.082;2024-02-15T04:51:15;5.80;;;3.90;;
3155;SDS011;1588;50.892;7.082;2024-02-15T04:56:18;10.10;;;3.10;;
3155;SDS011;1588;50.892;7.082;2024-02-15T05:01:23;15.73;;;3.43;;
3155;SDS011;1588;50.892;7.082;2024-02-15T05:06:25;7.60;;;3.70;;
3155;SDS011;1588;50.892;7.082;2024-02-15T05:11:31;5.73;;;3.30;;
3155;SDS011;1588;50.892;7.082;2024-02-15T05:16:37;3.63;;;2.90;;
3155;SDS011;1588;50.892;7.082;2024-02-15T05:21:49;11.30;;;3.13;;
3155;SDS011;1588;50.892;7.082;2024-02-15T05:26:51;5.03;;;3.23;;
3155;SDS011;1588;50.892;7.082;2024-02-15T05:31:58;5.80;;;3.10;;
3155;SDS011;1588;50.892;7.082;2024-02-15T05:37:03;8.13;;;3.57;;
3155;SDS011;1588;50.892;7.082;2024-02-15T05:42:07;11.93;;;3.60;;
3155;SDS011;1588;50.892;7.082;2024-02-15T05:47:12;4.10;;;2.53;;
3155;SDS011;1588;50.892;7.082;2024-02-15T05:52:15;11.23;;;4.00;;
3155;SDS011;1588;50.892;7.082;2024-02-15T05:57:19;15.60;;;4.43;;
3155;SDS011;1588;50.892;7.082;2024-02-15T06:02:23;6.17;;;3.23;;
3155;SDS011;1588;50.892;7.082;2024-02-15T06:07:25;5.13;;;3.03;;
3155;SDS011;1588;50.892;7.082;2024-02-15T06:12:29;13.40;;;4.53;;
3155;SDS011;1588;50.892;7.082;2024-02-15T06:17:34;16.90;;;3.20;;
3155;SDS011;1588;50.892;7.082;2024-02-15T06:22:39;12.37;;;3.30;;
3155;SDS011;1588;50.892;7.082;2024-02-15T06:27:41;17.00;;;3.27;;
3155;SDS011;1588;50.892;7.082;2024-02-15T06:32:45;8.93;;;3.23;;
3155;SDS011;1588;50.892;7.082;2024-02-15T06:38:05;5.23;;;3.17;;
3155;SDS011;1588;50.892;7.082;2024-02-15T06:43:25;8.23;;;3.23;;
3155;SDS011;1588;50.892;7.082;2024-02-15T06:48:29;7.30;;;2.90;;
3155;SDS011;1588;50.892;7.082;2024-02-15T06:53:31;5.67;;;2.77;;
3155;SDS011;1588;50.892;7.082;2024-02-15T06:58:34;5.47;;;3.30;;
3155;SDS011;1588;50.892;7.082;2024-02-15T07:03:38;10.30;;;3.47;;
3155;SDS011;1588;50.892;7.082;2024-02-15T07:08:40;4.50;;;3.00;;
3155;SDS011;1588;50.892;7.082;2024-02-15T07:13:43;6.93;;;3.50;;
3155;SDS011;1588;50.892;7.082;2024-02-15T07:18:48;7.67;;;3.40;;
3155;SDS011;1588;50.892;7.082;2024-02-15T07:23:50;5.83;;;3.17;;
3155;SDS011;1588;50.892;7.082;2024-02-15T07:28:53;5.63;;;3.80;;
3155;SDS011;1588;50.892;7.082;2024-02-15T07:33:57;9.10;;;3.97;;
3155;SDS011;1588;50.892;7.082;2024-02-15T07:39:00;8.93;;;4.40;;
3155;SDS011;1588;50.892;7.082;2024-02-15T07:44:03;7.73;;;3.77;;
3155;SDS011;1588;50.892;7.082;2024-02-15T07:49:07;11.43;;;4.33;;
3155;SDS011;1588;50.892;7.082;2024-02-15T07:54:10;10.93;;;4.50;;
3155;SDS011;1588;50.892;7.082;2024-02-15T07:59:13;13.53;;;4.20;;
3155;SDS011;1588;50.892;7.082;2024-02-15T08:04:18;10.20;;;4.70;;
3155;SDS011;1588;50.892;7.082;2024-02-15T08:09:21;12.63;;;4.63;;
3155;SDS011;1588;50.892;7.082;2024-02-15T08:14:24;8.33;;;4.77;;
3155;SDS011;1588;50.892;7.082;2024-02-15T08:19:28;33.33;;;6.47;;
3155;SDS011;1588;50.892;7.082;2024-02-15T08:24:31;7.73;;;4.60;;
3155;SDS011;1588;50.892;7.082;2024-02-15T08:29:34;7.87;;;4.33;;
3155;SDS011;1588;50.892;7.082;2024-02-15T08:34:37;8.53;;;3.87;;
3155;SDS011;1588;50.892;7.082;2024-02-15T08:39:40;8.43;;;3.87;;
3155;SDS011;1588;50.892;7.082;2024-02-15T08:44:45;8.03;;;3.73;;
3155;SDS011;1588;50.892;7.082;2024-02-15T08:49:50;7.20;;;3.60;;
3155;SDS011;1588;50.892;7.082;2024-02-15T08:54:55;8.10;;;3.63;;
3155;SDS011;1588;50.892;7.082;2024-02-15T08:59:59;5.53;;;2.90;;
3155;SDS011;1588;50.892;7.082;2024-02-15T09:05:07;6.27;;;3.30;;
3155;SDS011;1588;50.892;7.082;2024-02-15T09:10:10;6.67;;;3.53;;
3155;SDS011;1588;50.892;7.082;2024-02-15T09:15:14;6.37;;;3.87;;
3155;SDS011;1588;50.892;7.082;2024-02-15T09:20:18;8.40;;;3.17;;
3155;SDS011;1588;50.892;7.082;2024-02-15T09:25:21;10.67;;;3.17;;
3155;SDS011;1588;50.892;7.082;2024-02-15T09:30:25;7.83;;;3.20;;
3155;SDS011;1588;50.892;7.082;2024-02-15T09:35:30;7.90;;;2.67;;
3155;SDS011;1588;50.892;7.082;2024-02-15T09:40:35;16.13;;;3.43;;
3155;SDS011;1588;50.892;7.082;2024-02-15T09:45:42;11.60;;;2.50;;
3155;SDS011;1588;50.892;7.082;2024-02-15T09:50:46;6.47;;;2.80;;
3155;SDS011;1588;50.892;7.082;2024-02-15T09:55:51;7.37;;;2.27;;
3155;SDS011;1588;50.892;7.082;2024-02-15T10:00:55;12.53;;;2.60;;
3155;SDS011;1588;50.892;7.082;2024-02-15T10:05:59;7.47;;;2.37;;
3155;SDS011;1588;50.892;7.082;2024-02-15T10:11:05;9.33;;;2.20;;
3155;SDS011;1588;50.892;7.082;2024-02-15T10:16:15;10.00;;;2.30;;
3155;SDS011;1588;50.892;7.082;2024-02-15T10:21:26;2.77;;;1.93;;
3155;SDS011;1588;50.892;7.082;2024-02-15T10:26:31;2.50;;;1.60;;
3155;SDS011;1588;50.892;7.082;2024-02-15T10:31:35;9.10;;;1.90;;
3155;SDS011;1588;50.892;7.082;2024-02-15T10:36:40;6.60;;;2.00;;
3155;SDS011;1588;50.892;7.082;2024-02-15T10:41:43;12.57;;;2.30;;
3155;SDS011;1588;50.892;7.082;2024-02-15T10:46:50;8.13;;;1.83;;
3155;SDS011;1588;50.892;7.082;2024-02-15T10:51:56;8.70;;;2.43;;
3155;SDS011;1588;50.892;7.082;2024-02-15T10:57:05;8.00;;;2.30;;
3155;SDS011;1588;50.892;7.082;2024-02-15T11:02:18;3.33;;;2.10;;
3155;SDS011;1588;50.892;7.082;2024-02-15T11:07:29;4.50;;;1.93;;
3155;SDS011;1588;50.892;7.082;2024-02-15T11:12:36;3.27;;;1.83;;
3155;SDS011;1588;50.892;7.082;2024-02-15T11:17:44;4.67;;;1.73;;
3155;SDS011;1588;50.892;7.082;2024-02-15T11:23:02;3.47;;;2.23;;
3155;SDS011;1588;50.892;7.082;2024-02-15T11:28:37;8.83;;;2.67;;
3155;SDS011;1588;50.892;7.082;2024-02-15T11:33:51;12.60;;;2.17;;
3155;SDS011;1588;50.892;7.082;2024-02-15T11:38:55;3.27;;;2.00;;
3155;SDS011;1588;50.892;7.082;2024-02-15T11:44:00;4.90;;;2.53;;
3155;SDS011;1588;50.892;7.082;2024-02-15T11:49:14;6.10;;;2.10;;
3155;SDS011;1588;50.892;7.082;2024-02-15T11:54:23;5.07;;;2.00;;
3155;SDS011;1588;50.892;7.082;2024-02-15T11:59:27;8.33;;;2.07;;
3155;SDS011;1588;50.892;7.082;2024-02-15T12:04:44;4.23;;;2.10;;
3155;SDS011;1588;50.892;7.082;2024-02-15T12:10:17;5.10;;;2.40;;
3155;SDS011;1588;50.892;7.082;2024-02-15T12:15:38;3.43;;;1.90;;
3155;SDS011;1588;50.892;7.082;2024-02-15T12:21:07;3.00;;;1.80;;
3155;SDS011;1588;50.892;7.082;2024-02-15T12:26:14;4.17;;;2.30;;
3155;SDS011;1588;50.892;7.082;2024-02-15T12:31:20;4.27;;;2.07;;
3155;SDS011;1588;50.892;7.082;2024-02-15T12:36:23;5.20;;;2.30;;
3155;SDS011;1588;50.892;7.082;2024-02-15T12:41:27;5.93;;;2.50;;
3155;SDS011;1588;50.892;7.082;2024-02-15T12:46:37;5.83;;;2.27;;
3155;SDS011;1588;50.892;7.082;2024-02-15T12:51:41;5.60;;;1.80;;
3155;SDS011;1588;50.892;7.082;2024-02-15T12:57:00;10.13;;;2.13;;
3155;SDS011;1588;50.892;7.082;2024-02-15T13:02:11;3.67;;;2.07;;
3155;SDS011;1588;50.892;7.082;2024-02-15T13:07:15;7.80;;;2.73;;
3155;SDS011;1588;50.892;7.082;2024-02-15T13:12:19;15.63;;;2.80;;
3155;SDS011;1588;50.892;7.082;2024-02-15T13:17:21;2.10;;;1.70;;
3155;SDS011;1588;50.892;7.082;2024-02-15T13:22:24;8.10;;;1.83;;
3155;SDS011;1588;50.892;7.082;2024-02-15T13:27:28;5.10;;;1.90;;
3155;SDS011;1588;50.892;7.082;2024-02-15T13:32:30;3.83;;;2.00;;
3155;SDS011;1588;50.892;7.082;2024-02-15T13:37:33;7.53;;;2.13;;
3155;SDS011;1588;50.892;7.082;2024-02-15T13:42:37;5.63;;;1.90;;
3155;SDS011;1588;50.892;7.082;2024-02-15T13:47:40;7.10;;;1.87;;
3155;SDS011;1588;50.892;7.082;2024-02-15T13:52:46;4.17;;;1.70;;
3155;SDS011;1588;50.892;7.082;2024-02-15T13:57:50;3.10;;;1.63;;
3155;SDS011;1588;50.892;7.082;2024-02-15T14:02:53;3.53;;;1.73;;
3155;SDS011;1588;50.892;7.082;2024-02-15T14:07:57;4.00;;;1.47;;
3155;SDS011;1588;50.892;7.082;2024-02-15T14:13:03;3.10;;;1.80;;
3155;SDS011;1588;50.892;7.082;2024-02-15T14:18:08;2.97;;;1.57;;
3155;SDS011;1588;50.892;7.082;2024-02-15T14:23:14;4.10;;;1.50;;
3155;SDS011;1588;50.892;7.082;2024-02-15T14:28:18;2.50;;;1.23;;
3155;SDS011;1588;50.892;7.082;2024-02-15T14:33:22;4.87;;;1.20;;
3155;SDS011;1588;50.892;7.082;2024-02-15T14:38:25;2.57;;;1.40;;
3155;SDS011;1588;50.892;7.082;2024-02-15T14:43:36;3.10;;;1.50;;
3155;SDS011;1588;50.892;7.082;2024-02-15T14:48:38;7.47;;;1.27;;
3155;SDS011;1588;50.892;7.082;2024-02-15T14:53:42;2.00;;;1.60;;
3155;SDS011;1588;50.892;7.082;2024-02-15T14:58:46;1.73;;;1.30;;
3155;SDS011;1588;50.892;7.082;2024-02-15T15:03:54;3.10;;;1.43;;
3155;SDS011;1588;50.892;7.082;2024-02-15T15:08:58;6.50;;;1.70;;
3155;SDS011;1588;50.892;7.082;2024-02-15T15:14:20;6.57;;;2.20;;
3155;SDS011;1588;50.892;7.082;2024-02-15T15:19:23;10.03;;;1.60;;
3155;SDS011;1588;50.892;7.082;2024-02-15T15:24:25;5.70;;;1.73;;
3155;SDS011;1588;50.892;7.082;2024-02-15T15:29:29;3.77;;;1.57;;
3155;SDS011;1588;50.892;7.082;2024-02-15T15:34:31;9.10;;;1.57;;
3155;SDS011;1588;50.892;7.082;2024-02-15T15:39:34;5.70;;;1.63;;
3155;SDS011;1588;50.892;7.082;2024-02-15T15:44:38;4.10;;;1.70;;
3155;SDS011;1588;50.892;7.082;2024-02-15T15:49:41;5.53;;;1.63;;
3155;SDS011;1588;50.892;7.082;2024-02-15T15:54:44;3.83;;;1.43;;
3155;SDS011;1588;50.892;7.082;2024-02-15T15:59:48;6.37;;;1.60;;
3155;SDS011;1588;50.892;7.082;2024-02-15T16:04:51;4.03;;;1.60;;
3155;SDS011;1588;50.892;7.082;2024-02-15T16:09:57;9.70;;;1.20;;
3155;SDS011;1588;50.892;7.082;2024-02-15T16:15:01;9.70;;;1.47;;
3155;SDS011;1588;50.892;7.082;2024-02-15T16:20:06;3.70;;;1.20;;
3155;SDS011;1588;50.892;7.082;2024-02-15T16:25:09;2.70;;;1.20;;
3155;SDS011;1588;50.892;7.082;2024-02-15T16:30:13;4.07;;;1.40;;
3155;SDS011;1588;50.892;7.082;2024-02-15T16:35:16;4.93;;;2.03;;
3155;SDS011;1588;50.892;7.082;2024-02-15T16:40:20;8.17;;;1.50;;
3155;SDS011;1588;50.892;7.082;2024-02-15T16:45:25;5.93;;;1.40;;
3155;SDS011;1588;50.892;7.082;2024-02-15T16:50:28;3.73;;;1.50;;
3155;SDS011;1588;50.892;7.082;2024-02-15T16:55:31;3.80;;;1.30;;
3155;SDS011;1588;50.892;7.082;2024-02-15T17:00:35;8.20;;;1.60;;
3155;SDS011;1588;50.892;7.082;2024-02-15T17:05:39;2.13;;;1.20;;
3155;SDS011;1588;50.892;7.082;2024-02-15T17:10:41;3.47;;;1.40;;
3155;SDS011;1588;50.892;7.082;2024-02-15T17:15:45;3.77;;;1.93;;
3155;SDS011;1588;50.892;7.082;2024-02-15T17:20:48;6.07;;;1.93;;
3155;SDS011;1588;50.892;7.082;2024-02-15T17:25:51;7.43;;;1.73;;
3155;SDS011;1588;50.892;7.082;2024-02-15T17:30:55;3.80;;;1.90;;
3155;SDS011;1588;50.892;7.082;2024-02-15T17:35:59;3.17;;;1.00;;
3155;SDS011;1588;50.892;7.082;2024-02-15T17:41:03;4.50;;;1.73;;
3155;SDS011;1588;50.892;7.082;2024-02-15T17:46:07;4.60;;;1.80;;
3155;SDS011;1588;50.892;7.082;2024-02-15T17:51:14;7.20;;;1.77;;
3155;SDS011;1588;50.892;7.082;2024-02-15T17:56:17;4.13;;;1.73;;
3155;SDS011;1588;50.892;7.082;2024-02-15T18:01:21;3.70;;;1.57;;
3155;SDS011;1588;50.892;7.082;2024-02-15T18:06:24;3.20;;;1.53;;
3155;SDS011;1588;50.892;7.082;2024-02-15T18:11:29;2.00;;;1.60;;
3155;SDS011;1588;50.892;7.082;2024-02-15T18:16:33;4.83;;;1.57;;
3155;SDS011;1588;50.892;7.082;2024-02-15T18:21:37;3.10;;;1.43;;
3155;SDS011;1588;50.892;7.082;2024-02-15T18:26:40;4.20;;;1.83;;
3155;SDS011;1588;50.892;7.082;2024-02-15T18:31:44;9.33;;;2.30;;
3155;SDS011;1588;50.892;7.082;2024-02-15T18:37:02;4.20;;;1.60;;
3155;SDS011;1588;50.892;7.082;2024-02-15T18:42:22;3.60;;;1.87;;
3155;SDS011;1588;50.892;7.082;2024-02-15T18:47:27;2.23;;;1.20;;
3155;SDS011;1588;50.892;7.082;2024-02-15T18:52:30;4.80;;;1.73;;
3155;SDS011;1588;50.892;7.082;2024-02-15T18:57:32;3.60;;;1.77;;
3155;SDS011;1588;50.892;7.082;2024-02-15T19:02:37;5.83;;;2.03;;
3155;SDS011;1588;50.892;7.082;2024-02-15T19:07:39;3.20;;;1.57;;
3155;SDS011;1588;50.892;7.082;2024-02-15T19:12:44;4.63;;;1.60;;
3155;SDS011;1588;50.892;7.082;2024-02-15T19:17:48;2.57;;;1.40;;
3155;SDS011;1588;50.892;7.082;2024-02-15T19:22:50;3.27;;;2.00;;
3155;SDS011;1588;50.892;7.082;2024-02-15T19:27:53;3.73;;;1.47;;
3155;SDS011;1588;50.892;7.082;2024-02-15T19:32:57;4.73;;;1.73;;
3155;SDS011;1588;50.892;7.082;2024-02-15T19:38:00;4.87;;;1.60;;
3155;SDS011;1588;50.892;7.082;2024-02-15T19:43:02;7.57;;;1.90;;
3155;SDS011;1588;50.892;7.082;2024-02-15T19:48:16;6.00;;;1.90;;
3155;SDS011;1588;50.892;7.082;2024-02-15T19:53:19;4.23;;;2.00;;
3155;SDS011;1588;50.892;7.082;2024-02-15T19:58:21;4.10;;;1.67;;
3155;SDS011;1588;50.892;7.082;2024-02-15T20:03:26;2.60;;;1.80;;
3155;SDS011;1588;50.892;7.082;2024-02-15T20:08:31;5.47;;;1.90;;
3155;SDS011;1588;50.892;7.082;2024-02-15T20:13:34;12.83;;;2.23;;
3155;SDS011;1588;50.892;7.082;2024-02-15T20:18:38;3.73;;;1.53;;
3155;SDS011;1588;50.892;7.082;2024-02-15T20:23:44;4.30;;;1.70;;
3155;SDS011;1588;50.892;7.082;2024-02-15T20:28:46;8.30;;;2.20;;
3155;SDS011;1588;50.892;7.082;2024-02-15T20:33:51;6.53;;;1.90;;
3155;SDS011;1588;50.892;7.082;2024-02-15T20:38:58;5.83;;;2.20;;
3155;SDS011;1588;50.892;7.082;2024-02-15T20:44:00;5.33;;;2.03;;
3155;SDS011;1588;50.892;7.082;2024-02-15T20:49:04;6.87;;;2.10;;
3155;SDS011;1588;50.892;7.082;2024-02-15T20:54:06;3.50;;;2.00;;
3155;SDS011;1588;50.892;7.082;2024-02-15T20:59:14;5.50;;;2.33;;
3155;SDS011;1588;50.892;7.082;2024-02-15T21:04:18;3.37;;;2.17;;
3155;SDS011;1588;50.892;7.082;2024-02-15T21:09:21;2.47;;;1.60;;
3155;SDS011;1588;50.892;7.082;2024-02-15T21:14:23;7.63;;;2.20;;
3155;SDS011;1588;50.892;7.082;2024-02-15T21:19:33;4.10;;;2.03;;
3155;SDS011;1588;50.892;7.082;2024-02-15T21:24:38;4.77;;;1.97;;
3155;SDS011;1588;50.892;7.082;2024-02-15T21:29:41;6.47;;;3.10;;
3155;SDS011;1588;50.892;7.082;2024-02-15T21:34:48;1.90;;;1.70;;
3155;SDS011;1588;50.892;7.082;2024-02-15T21:39:51;7.97;;;2.53;;
3155;SDS011;1588;50.892;7.082;2024-02-15T21:44:55;7.63;;;2.47;;
3155;SDS011;1588;50.892;7.082;2024-02-15T21:49:59;3.10;;;1.97;;
3155;SDS011;1588;50.892;7.082;2024-02-15T21:55:03;3.93;;;2.27;;
3155;SDS011;1588;50.892;7.082;2024-02-15T22:00:13;2.50;;;2.13;;
3155;SDS011;1588;50.892;7.082;2024-02-15T22:05:17;3.50;;;1.80;;
3155;SDS011;1588;50.892;7.082;2024-02-15T22:10:20;2.77;;;1.80;;
3155;SDS011;1588;50.892;7.082;2024-02-15T22:15:22;3.70;;;2.17;;
3155;SDS011;1588;50.892;7.082;2024-02-15T22:20:26;4.30;;;1.87;;
3155;SDS011;1588;50.892;7.082;2024-02-15T22:25:28;3.37;;;1.73;;
3155;SDS011;1588;50.892;7.082;2024-02-15T22:30:32;3.80;;;1.67;;
3155;SDS011;1588;50.892;7.082;2024-02-15T22:35:36;2.33;;;1.70;;
3155;SDS011;1588;50.892;7.082;2024-02-15T22:40:39;5.77;;;2.20;;
3155;SDS011;1588;50.892;7.082;2024-02-15T22:45:43;5.63;;;2.20;;
3155;SDS011;1588;50.892;7.082;2024-02-15T22:50:47;8.57;;;2.57;;
3155;SDS011;1588;50.892;7.082;2024-02-15T22:55:50;2.70;;;1.63;;
3155;SDS011;1588;50.892;7.082;2024-02-15T23:00:52;3.43;;;2.30;;
3155;SDS011;1588;50.892;7.082;2024-02-15T23:05:56;10.00;;;1.93;;
3155;SDS011;1588;50.892;7.082;2024-02-15T23:10:59;5.63;;;2.20;;
3155;SDS011;1588;50.892;7.082;2024-02-15T23:16:05;2.70;;;1.67;;
3155;SDS011;1588;50.892;7.082;2024-02-15T23:21:11;5.47;;;1.97;;
3155;SDS011;1588;50.892;7.082;2024-02-15T23:26:13;2.70;;;1.63;;
3155;SDS011;1588;50.892;7.082;2024-02-15T23:31:16;2.70;;;1.93;;
3155;SDS011;1588;50.892;7.082;2024-02-15T23:36:21;4.20;;;1.87;;
3155;SDS011;1588;50.892;7.082;2024-02-15T23:41:41;2.20;;;1.80;;
3155;SDS011;1588;50.892;7.082;2024-02-15T23:46:44;5.10;;;1.90;;
3155;SDS011;1588;50.892;7.082;2024-02-15T23:51:50;4.40;;;1.90;;
3155;SDS011;1588;50.892;7.082;2024-02-15T23:56:53;4.60;;;2.00;;
